This is the latest recevied weather packets stored in our database for station/object KY4LEX. If no packets are shown the sender has not sent any weather packets the latest 10 day(s).
| Time | Temp. | Humidity | Pressure | Rain* | Wind** | Luminosity | Snow |
|---|---|---|---|---|---|---|---|
| 1777566000 | 15° C | 47% | 1022 hPa | 0 mm | - | 670 W/m² | - |
| 1777565695 | 13.89° C | 49% | 1022.3 hPa | 0 mm | - | 734 W/m² | - |
| 1777565392 | 14.44° C | 51% | 1022.3 hPa | 0 mm | - | 136 W/m² | - |
| 1777565088 | 14.44° C | 50% | 1022.3 hPa | 0 mm | - | 740 W/m² | - |
| 1777564784 | 12.78° C | 55% | 1022.2 hPa | 0 mm | - | 305 W/m² | - |
| 1777564479 | 12.22° C | 55% | 1022.3 hPa | 0 mm | - | 688 W/m² | - |
| 1777564175 | 13.33° C | 54% | 1022.5 hPa | 0 mm | - | 308 W/m² | - |
| 1777563872 | 15° C | 52% | 1022.4 hPa | 0 mm | - | 156 W/m² | - |
| 1777563567 | 15° C | 49% | 1022.5 hPa | 0 mm | - | 709 W/m² | - |
| 1777563267 | 13.89° C | 51% | 1022.5 hPa | 0 mm | - | 685 W/m² | - |
| 1777562963 | 13.89° C | 55% | 1022.4 hPa | 0 mm | - | 652 W/m² | - |
| 1777562660 | 13.89° C | 51% | 1022 hPa | 0 mm | - | 656 W/m² | - |
| 1777562354 | 12.78° C | 54% | 1022.4 hPa | 0 mm | - | 157 W/m² | - |
| 1777562050 | 12.78° C | 56% | 1022.1 hPa | 0 mm | - | 556 W/m² | - |
| 1777561747 | 12.78° C | 56% | 1022.2 hPa | 0 mm | - | 592 W/m² | - |
| 1777561443 | 12.78° C | 57% | 1022.2 hPa | 0 mm | - | 252 W/m² | - |
| 1777561138 | 11.67° C | 59% | 1022.2 hPa | 0 mm | - | 562 W/m² | - |
| 1777560833 | 11.67° C | 57% | 1021.9 hPa | 0 mm | - | 550 W/m² | - |
| 1777560531 | 11.67° C | 58% | 1021.9 hPa | 0 mm | - | 539 W/m² | - |
| 1777560229 | 11.67° C | 59% | 1021.8 hPa | 0 mm | - | 187 W/m² | - |
| 1777559925 | 11.67° C | 59% | 1021.8 hPa | 0 mm | - | 152 W/m² | - |
| 1777559620 | 11.11° C | 58% | 1021.7 hPa | 0 mm | - | 74 W/m² | - |
| 1777559319 | 10.56° C | 60% | 1022 hPa | 0 mm | - | 189 W/m² | - |
| 1777559014 | 10.56° C | 59% | 1021.7 hPa | 0 mm | - | 82 W/m² | - |
| 1777558710 | 10.56° C | 59% | 1021.7 hPa | 0 mm | - | 114 W/m² | - |
* Rain latest hour (hover to see other rain measurements)
** Current wind speed in m/s (hover to see current wind gust speed)